sensor_id;sensor_type;location;lat;lon;timestamp;P1;durP1;ratioP1;P2;durP2;ratioP2
78167;SDS011;67410;42.698;23.378;2023-02-11T00:00:17;35.03;;;15.13;;
78167;SDS011;67410;42.698;23.378;2023-02-11T00:02:44;38.65;;;14.02;;
78167;SDS011;67410;42.698;23.378;2023-02-11T00:05:10;37.28;;;14.32;;
78167;SDS011;67410;42.698;23.378;2023-02-11T00:07:37;32.20;;;13.23;;
78167;SDS011;67410;42.698;23.378;2023-02-11T00:10:03;34.38;;;15.50;;
78167;SDS011;67410;42.698;23.378;2023-02-11T00:12:33;37.75;;;12.68;;
78167;SDS011;67410;42.698;23.378;2023-02-11T00:15:00;31.20;;;13.50;;
78167;SDS011;67410;42.698;23.378;2023-02-11T00:17:27;33.55;;;14.15;;
78167;SDS011;67410;42.698;23.378;2023-02-11T00:19:53;40.60;;;16.35;;
78167;SDS011;67410;42.698;23.378;2023-02-11T00:22:19;40.95;;;14.65;;
78167;SDS011;67410;42.698;23.378;2023-02-11T00:24:45;28.75;;;12.55;;
78167;SDS011;67410;42.698;23.378;2023-02-11T00:27:11;36.92;;;14.25;;
78167;SDS011;67410;42.698;23.378;2023-02-11T00:29:37;39.33;;;15.30;;
78167;SDS011;67410;42.698;23.378;2023-02-11T00:32:04;38.38;;;17.05;;
78167;SDS011;67410;42.698;23.378;2023-02-11T00:34:31;71.97;;;24.38;;
78167;SDS011;67410;42.698;23.378;2023-02-11T00:36:58;62.65;;;19.90;;
78167;SDS011;67410;42.698;23.378;2023-02-11T00:39:24;43.05;;;15.45;;
78167;SDS011;67410;42.698;23.378;2023-02-11T00:41:50;32.42;;;12.48;;
78167;SDS011;67410;42.698;23.378;2023-02-11T00:44:17;31.10;;;14.77;;
78167;SDS011;67410;42.698;23.378;2023-02-11T00:46:43;35.92;;;14.23;;
78167;SDS011;67410;42.698;23.378;2023-02-11T00:49:09;37.70;;;15.05;;
78167;SDS011;67410;42.698;23.378;2023-02-11T00:51:36;35.65;;;14.57;;
78167;SDS011;67410;42.698;23.378;2023-02-11T00:54:02;37.80;;;14.80;;
78167;SDS011;67410;42.698;23.378;2023-02-11T00:56:28;36.92;;;13.57;;
78167;SDS011;67410;42.698;23.378;2023-02-11T00:58:54;38.17;;;14.13;;
78167;SDS011;67410;42.698;23.378;2023-02-11T01:01:20;35.05;;;13.95;;
78167;SDS011;67410;42.698;23.378;2023-02-11T01:03:47;46.35;;;15.38;;
78167;SDS011;67410;42.698;23.378;2023-02-11T01:06:13;39.92;;;14.10;;
78167;SDS011;67410;42.698;23.378;2023-02-11T01:08:39;46.17;;;14.80;;
78167;SDS011;67410;42.698;23.378;2023-02-11T01:11:07;34.20;;;15.30;;
78167;SDS011;67410;42.698;23.378;2023-02-11T01:13:38;47.15;;;18.00;;
78167;SDS011;67410;42.698;23.378;2023-02-11T01:16:07;46.00;;;18.17;;
78167;SDS011;67410;42.698;23.378;2023-02-11T01:18:35;40.33;;;16.35;;
78167;SDS011;67410;42.698;23.378;2023-02-11T01:21:02;54.42;;;20.92;;
78167;SDS011;67410;42.698;23.378;2023-02-11T01:23:28;45.90;;;16.23;;
78167;SDS011;67410;42.698;23.378;2023-02-11T01:25:55;42.95;;;17.23;;
78167;SDS011;67410;42.698;23.378;2023-02-11T01:28:23;39.55;;;14.57;;
78167;SDS011;67410;42.698;23.378;2023-02-11T01:30:51;33.00;;;15.52;;
78167;SDS011;67410;42.698;23.378;2023-02-11T01:33:18;37.05;;;15.35;;
78167;SDS011;67410;42.698;23.378;2023-02-11T01:35:45;33.45;;;13.55;;
78167;SDS011;67410;42.698;23.378;2023-02-11T01:38:15;37.25;;;15.40;;
78167;SDS011;67410;42.698;23.378;2023-02-11T01:40:57;41.20;;;15.88;;
78167;SDS011;67410;42.698;23.378;2023-02-11T01:43:25;53.95;;;20.15;;
78167;SDS011;67410;42.698;23.378;2023-02-11T01:48:40;46.72;;;17.73;;
78167;SDS011;67410;42.698;23.378;2023-02-11T01:51:17;42.33;;;16.92;;
78167;SDS011;67410;42.698;23.378;2023-02-11T01:53:47;42.25;;;17.08;;
78167;SDS011;67410;42.698;23.378;2023-02-11T07:01:47;58.83;;;25.13;;
78167;SDS011;67410;42.698;23.378;2023-02-11T07:04:13;57.15;;;21.52;;
78167;SDS011;67410;42.698;23.378;2023-02-11T07:06:40;57.42;;;24.55;;
78167;SDS011;67410;42.698;23.378;2023-02-11T07:09:06;51.35;;;22.92;;
78167;SDS011;67410;42.698;23.378;2023-02-11T07:11:33;55.67;;;19.05;;
78167;SDS011;67410;42.698;23.378;2023-02-11T07:14:00;37.00;;;18.25;;
78167;SDS011;67410;42.698;23.378;2023-02-11T07:16:30;35.20;;;16.90;;
78167;SDS011;67410;42.698;23.378;2023-02-11T07:18:57;41.53;;;18.63;;
78167;SDS011;67410;42.698;23.378;2023-02-11T07:21:23;49.28;;;19.85;;
78167;SDS011;67410;42.698;23.378;2023-02-11T07:23:49;38.67;;;18.23;;
78167;SDS011;67410;42.698;23.378;2023-02-11T07:26:17;35.13;;;16.75;;
78167;SDS011;67410;42.698;23.378;2023-02-11T07:28:44;62.45;;;23.50;;
78167;SDS011;67410;42.698;23.378;2023-02-11T07:31:12;44.65;;;21.27;;
78167;SDS011;67410;42.698;23.378;2023-02-11T07:36:07;52.70;;;20.48;;
78167;SDS011;67410;42.698;23.378;2023-02-11T07:38:35;37.78;;;17.25;;
78167;SDS011;67410;42.698;23.378;2023-02-11T07:41:03;37.85;;;18.15;;
78167;SDS011;67410;42.698;23.378;2023-02-11T07:43:35;31.90;;;14.80;;
78167;SDS011;67410;42.698;23.378;2023-02-11T07:46:06;55.78;;;23.13;;
78167;SDS011;67410;42.698;23.378;2023-02-11T07:48:35;32.85;;;15.15;;
78167;SDS011;67410;42.698;23.378;2023-02-11T07:51:08;37.22;;;16.20;;
78167;SDS011;67410;42.698;23.378;2023-02-11T07:53:40;53.78;;;22.35;;
78167;SDS011;67410;42.698;23.378;2023-02-11T07:56:06;54.03;;;20.58;;
78167;SDS011;67410;42.698;23.378;2023-02-11T07:58:34;53.38;;;21.70;;
78167;SDS011;67410;42.698;23.378;2023-02-11T08:01:01;44.13;;;17.58;;
78167;SDS011;67410;42.698;23.378;2023-02-11T08:03:32;41.53;;;18.30;;
78167;SDS011;67410;42.698;23.378;2023-02-11T08:06:06;47.30;;;21.98;;
78167;SDS011;67410;42.698;23.378;2023-02-11T08:08:37;50.05;;;23.35;;
78167;SDS011;67410;42.698;23.378;2023-02-11T08:11:06;45.40;;;19.25;;
78167;SDS011;67410;42.698;23.378;2023-02-11T08:13:39;39.65;;;18.10;;
78167;SDS011;67410;42.698;23.378;2023-02-11T08:16:06;55.42;;;24.23;;
78167;SDS011;67410;42.698;23.378;2023-02-11T08:18:43;43.67;;;21.60;;
78167;SDS011;67410;42.698;23.378;2023-02-11T08:21:09;47.58;;;19.77;;
78167;SDS011;67410;42.698;23.378;2023-02-11T08:23:36;36.72;;;16.33;;
78167;SDS011;67410;42.698;23.378;2023-02-11T08:26:03;42.03;;;17.48;;
78167;SDS011;67410;42.698;23.378;2023-02-11T08:28:33;52.50;;;21.90;;
78167;SDS011;67410;42.698;23.378;2023-02-11T08:31:07;36.30;;;17.20;;
78167;SDS011;67410;42.698;23.378;2023-02-11T08:33:35;40.00;;;18.27;;
78167;SDS011;67410;42.698;23.378;2023-02-11T08:36:24;46.90;;;20.65;;
78167;SDS011;67410;42.698;23.378;2023-02-11T08:38:50;38.97;;;15.85;;
78167;SDS011;67410;42.698;23.378;2023-02-11T08:41:18;54.20;;;20.85;;
78167;SDS011;67410;42.698;23.378;2023-02-11T08:43:45;42.28;;;15.98;;
78167;SDS011;67410;42.698;23.378;2023-02-11T08:46:15;37.67;;;16.33;;
78167;SDS011;67410;42.698;23.378;2023-02-11T08:48:43;29.63;;;16.52;;
78167;SDS011;67410;42.698;23.378;2023-02-11T08:51:20;44.08;;;17.50;;
78167;SDS011;67410;42.698;23.378;2023-02-11T08:53:49;41.13;;;17.58;;
78167;SDS011;67410;42.698;23.378;2023-02-11T08:56:17;37.20;;;16.73;;
78167;SDS011;67410;42.698;23.378;2023-02-11T08:58:44;38.17;;;17.02;;
78167;SDS011;67410;42.698;23.378;2023-02-11T09:01:12;37.08;;;15.30;;
78167;SDS011;67410;42.698;23.378;2023-02-11T09:03:40;42.00;;;19.13;;
78167;SDS011;67410;42.698;23.378;2023-02-11T09:06:08;41.80;;;15.98;;
78167;SDS011;67410;42.698;23.378;2023-02-11T09:08:37;38.85;;;18.85;;
78167;SDS011;67410;42.698;23.378;2023-02-11T09:11:07;38.38;;;17.05;;
78167;SDS011;67410;42.698;23.378;2023-02-11T09:13:36;35.40;;;16.23;;
78167;SDS011;67410;42.698;23.378;2023-02-11T09:16:03;35.65;;;15.20;;
78167;SDS011;67410;42.698;23.378;2023-02-11T09:18:30;48.63;;;19.85;;
78167;SDS011;67410;42.698;23.378;2023-02-11T09:21:03;45.53;;;23.17;;
78167;SDS011;67410;42.698;23.378;2023-02-11T09:23:32;25.63;;;13.10;;
78167;SDS011;67410;42.698;23.378;2023-02-11T09:26:10;34.47;;;18.27;;
78167;SDS011;67410;42.698;23.378;2023-02-11T09:28:39;90.50;;;38.20;;
78167;SDS011;67410;42.698;23.378;2023-02-11T09:31:06;35.40;;;16.67;;
78167;SDS011;67410;42.698;23.378;2023-02-11T09:33:33;42.80;;;17.95;;
78167;SDS011;67410;42.698;23.378;2023-02-11T09:36:00;39.63;;;16.98;;
78167;SDS011;67410;42.698;23.378;2023-02-11T09:38:27;39.78;;;18.95;;
78167;SDS011;67410;42.698;23.378;2023-02-11T09:40:53;31.42;;;17.67;;
78167;SDS011;67410;42.698;23.378;2023-02-11T09:43:30;35.17;;;15.18;;
78167;SDS011;67410;42.698;23.378;2023-02-11T09:46:04;35.15;;;15.60;;
78167;SDS011;67410;42.698;23.378;2023-02-11T09:48:35;31.92;;;13.50;;
78167;SDS011;67410;42.698;23.378;2023-02-11T09:51:12;35.00;;;15.27;;
78167;SDS011;67410;42.698;23.378;2023-02-11T09:53:45;31.52;;;13.93;;
78167;SDS011;67410;42.698;23.378;2023-02-11T09:56:15;25.60;;;10.70;;
78167;SDS011;67410;42.698;23.378;2023-02-11T09:58:42;27.67;;;11.57;;
78167;SDS011;67410;42.698;23.378;2023-02-11T10:04:03;20.90;;;10.43;;
78167;SDS011;67410;42.698;23.378;2023-02-11T10:23:15;34.17;;;15.52;;
78167;SDS011;67410;42.698;23.378;2023-02-11T10:25:50;29.75;;;12.30;;
78167;SDS011;67410;42.698;23.378;2023-02-11T10:28:20;40.47;;;17.90;;
78167;SDS011;67410;42.698;23.378;2023-02-11T10:33:42;41.45;;;15.80;;
78167;SDS011;67410;42.698;23.378;2023-02-11T10:36:13;30.95;;;14.38;;
78167;SDS011;67410;42.698;23.378;2023-02-11T10:38:42;41.38;;;15.75;;
78167;SDS011;67410;42.698;23.378;2023-02-11T10:41:12;28.15;;;12.60;;
78167;SDS011;67410;42.698;23.378;2023-02-11T10:43:42;32.65;;;14.75;;
78167;SDS011;67410;42.698;23.378;2023-02-11T10:46:11;25.13;;;13.23;;
78167;SDS011;67410;42.698;23.378;2023-02-11T10:53:37;23.38;;;11.50;;
78167;SDS011;67410;42.698;23.378;2023-02-11T10:56:05;31.10;;;13.85;;
78167;SDS011;67410;42.698;23.378;2023-02-11T11:01:11;36.67;;;16.25;;
78167;SDS011;67410;42.698;23.378;2023-02-11T11:03:45;25.10;;;11.80;;
78167;SDS011;67410;42.698;23.378;2023-02-11T11:06:14;25.20;;;10.98;;
78167;SDS011;67410;42.698;23.378;2023-02-11T11:11:08;21.73;;;11.05;;
78167;SDS011;67410;42.698;23.378;2023-02-11T11:13:36;47.20;;;20.58;;
78167;SDS011;67410;42.698;23.378;2023-02-11T11:16:15;40.33;;;16.65;;
78167;SDS011;67410;42.698;23.378;2023-02-11T11:18:46;40.58;;;15.98;;
78167;SDS011;67410;42.698;23.378;2023-02-11T11:21:18;43.47;;;16.92;;
78167;SDS011;67410;42.698;23.378;2023-02-11T11:23:49;34.35;;;14.07;;
78167;SDS011;67410;42.698;23.378;2023-02-11T11:26:18;24.23;;;13.15;;
78167;SDS011;67410;42.698;23.378;2023-02-11T11:31:32;19.17;;;8.70;;
78167;SDS011;67410;42.698;23.378;2023-02-11T11:34:14;21.35;;;9.93;;
78167;SDS011;67410;42.698;23.378;2023-02-11T11:36:47;21.83;;;12.32;;
78167;SDS011;67410;42.698;23.378;2023-02-11T11:39:19;23.90;;;9.90;;
78167;SDS011;67410;42.698;23.378;2023-02-11T11:41:57;17.50;;;10.43;;
78167;SDS011;67410;42.698;23.378;2023-02-11T11:44:43;22.60;;;11.35;;
78167;SDS011;67410;42.698;23.378;2023-02-11T11:47:23;26.77;;;11.90;;
78167;SDS011;67410;42.698;23.378;2023-02-11T11:53:03;30.75;;;9.45;;
78167;SDS011;67410;42.698;23.378;2023-02-11T11:55:40;26.70;;;11.18;;
78167;SDS011;67410;42.698;23.378;2023-02-11T11:58:11;22.95;;;10.38;;
78167;SDS011;67410;42.698;23.378;2023-02-11T12:03:43;16.95;;;8.88;;
78167;SDS011;67410;42.698;23.378;2023-02-11T12:12:05;20.67;;;8.07;;
78167;SDS011;67410;42.698;23.378;2023-02-11T12:14:55;20.75;;;9.48;;
78167;SDS011;67410;42.698;23.378;2023-02-11T12:17:41;17.90;;;8.43;;
78167;SDS011;67410;42.698;23.378;2023-02-11T12:23:37;17.27;;;8.85;;
78167;SDS011;67410;42.698;23.378;2023-02-11T12:26:18;18.95;;;7.15;;
78167;SDS011;67410;42.698;23.378;2023-02-11T12:42:24;52.95;;;20.67;;
78167;SDS011;67410;42.698;23.378;2023-02-11T12:48:22;15.45;;;8.40;;
78167;SDS011;67410;42.698;23.378;2023-02-11T12:54:40;20.25;;;9.40;;
78167;SDS011;67410;42.698;23.378;2023-02-11T12:57:02;33.13;;;13.43;;
78167;SDS011;67410;42.698;23.378;2023-02-11T13:02:43;17.17;;;7.97;;
78167;SDS011;67410;42.698;23.378;2023-02-11T13:05:26;20.20;;;9.52;;
78167;SDS011;67410;42.698;23.378;2023-02-11T13:11:29;24.23;;;9.30;;
78167;SDS011;67410;42.698;23.378;2023-02-11T13:13:54;23.13;;;10.45;;
78167;SDS011;67410;42.698;23.378;2023-02-11T13:37:55;18.02;;;8.68;;
78167;SDS011;67410;42.698;23.378;2023-02-11T13:42:54;31.88;;;14.80;;
78167;SDS011;67410;42.698;23.378;2023-02-11T13:48:00;21.25;;;9.98;;
78167;SDS011;67410;42.698;23.378;2023-02-11T13:50:29;20.75;;;10.35;;
78167;SDS011;67410;42.698;23.378;2023-02-11T13:53:02;24.48;;;11.35;;
78167;SDS011;67410;42.698;23.378;2023-02-11T13:55:32;26.10;;;11.55;;
78167;SDS011;67410;42.698;23.378;2023-02-11T14:27:14;34.80;;;14.57;;
78167;SDS011;67410;42.698;23.378;2023-02-11T14:38:41;22.40;;;10.20;;
78167;SDS011;67410;42.698;23.378;2023-02-11T14:41:26;23.52;;;11.32;;
78167;SDS011;67410;42.698;23.378;2023-02-11T14:44:00;25.27;;;11.70;;
78167;SDS011;67410;42.698;23.378;2023-02-11T14:46:30;28.83;;;12.68;;
78167;SDS011;67410;42.698;23.378;2023-02-11T14:48:59;28.65;;;14.02;;
78167;SDS011;67410;42.698;23.378;2023-02-11T14:51:29;34.78;;;15.85;;
78167;SDS011;67410;42.698;23.378;2023-02-11T14:54:10;32.83;;;14.93;;
78167;SDS011;67410;42.698;23.378;2023-02-11T14:56:41;37.38;;;15.88;;
78167;SDS011;67410;42.698;23.378;2023-02-11T14:59:16;30.98;;;13.48;;
78167;SDS011;67410;42.698;23.378;2023-02-11T15:01:45;32.25;;;14.95;;
78167;SDS011;67410;42.698;23.378;2023-02-11T15:04:28;34.50;;;14.02;;
78167;SDS011;67410;42.698;23.378;2023-02-11T15:06:56;23.02;;;9.52;;
78167;SDS011;67410;42.698;23.378;2023-02-11T15:09:33;34.25;;;12.85;;
78167;SDS011;67410;42.698;23.378;2023-02-11T15:12:25;37.67;;;16.25;;
78167;SDS011;67410;42.698;23.378;2023-02-11T15:14:54;52.60;;;21.20;;
78167;SDS011;67410;42.698;23.378;2023-02-11T15:17:25;53.92;;;21.92;;
78167;SDS011;67410;42.698;23.378;2023-02-11T15:19:55;49.40;;;21.35;;
78167;SDS011;67410;42.698;23.378;2023-02-11T15:22:28;28.45;;;13.68;;
78167;SDS011;67410;42.698;23.378;2023-02-11T15:25:14;37.17;;;15.48;;
78167;SDS011;67410;42.698;23.378;2023-02-11T15:27:48;33.75;;;14.35;;
78167;SDS011;67410;42.698;23.378;2023-02-11T15:32:48;46.17;;;15.82;;
78167;SDS011;67410;42.698;23.378;2023-02-11T15:35:17;26.00;;;11.18;;
78167;SDS011;67410;42.698;23.378;2023-02-11T15:37:43;34.35;;;11.50;;
78167;SDS011;67410;42.698;23.378;2023-02-11T15:40:17;42.10;;;17.83;;
78167;SDS011;67410;42.698;23.378;2023-02-11T15:43:03;33.20;;;14.02;;
78167;SDS011;67410;42.698;23.378;2023-02-11T15:48:11;42.67;;;14.30;;
78167;SDS011;67410;42.698;23.378;2023-02-11T15:51:28;19.35;;;8.95;;
78167;SDS011;67410;42.698;23.378;2023-02-11T15:53:53;23.13;;;11.85;;
78167;SDS011;67410;42.698;23.378;2023-02-11T15:56:58;21.50;;;10.43;;
78167;SDS011;67410;42.698;23.378;2023-02-11T15:59:24;66.25;;;25.27;;
78167;SDS011;67410;42.698;23.378;2023-02-11T16:02:03;48.60;;;17.70;;
78167;SDS011;67410;42.698;23.378;2023-02-11T16:04:32;162.00;;;68.70;;
78167;SDS011;67410;42.698;23.378;2023-02-11T16:06:58;30.35;;;14.45;;
78167;SDS011;67410;42.698;23.378;2023-02-11T16:09:29;31.38;;;15.02;;
78167;SDS011;67410;42.698;23.378;2023-02-11T16:12:01;80.25;;;30.73;;
78167;SDS011;67410;42.698;23.378;2023-02-11T16:14:33;30.23;;;10.98;;
78167;SDS011;67410;42.698;23.378;2023-02-11T16:17:11;28.10;;;12.20;;
78167;SDS011;67410;42.698;23.378;2023-02-11T16:19:48;29.02;;;11.85;;
78167;SDS011;67410;42.698;23.378;2023-02-11T16:22:18;21.33;;;11.13;;
78167;SDS011;67410;42.698;23.378;2023-02-11T16:24:54;31.25;;;15.10;;
78167;SDS011;67410;42.698;23.378;2023-02-11T16:27:36;25.88;;;11.95;;
78167;SDS011;67410;42.698;23.378;2023-02-11T16:30:05;24.73;;;11.65;;
78167;SDS011;67410;42.698;23.378;2023-02-11T16:32:57;26.65;;;12.27;;
78167;SDS011;67410;42.698;23.378;2023-02-11T16:35:23;58.55;;;23.50;;
78167;SDS011;67410;42.698;23.378;2023-02-11T16:37:49;44.03;;;19.23;;
78167;SDS011;67410;42.698;23.378;2023-02-11T16:40:16;55.40;;;23.58;;
78167;SDS011;67410;42.698;23.378;2023-02-11T16:42:42;49.05;;;18.80;;
78167;SDS011;67410;42.698;23.378;2023-02-11T16:45:09;50.22;;;21.80;;
78167;SDS011;67410;42.698;23.378;2023-02-11T16:47:35;50.35;;;22.17;;
78167;SDS011;67410;42.698;23.378;2023-02-11T16:50:07;39.58;;;19.80;;
78167;SDS011;67410;42.698;23.378;2023-02-11T16:52:35;57.08;;;23.60;;
78167;SDS011;67410;42.698;23.378;2023-02-11T16:55:02;45.75;;;19.58;;
78167;SDS011;67410;42.698;23.378;2023-02-11T16:57:30;28.20;;;13.77;;
78167;SDS011;67410;42.698;23.378;2023-02-11T16:59:56;37.30;;;13.38;;
78167;SDS011;67410;42.698;23.378;2023-02-11T17:04:55;69.97;;;24.33;;
78167;SDS011;67410;42.698;23.378;2023-02-11T17:07:24;30.77;;;13.77;;
78167;SDS011;67410;42.698;23.378;2023-02-11T17:09:52;28.30;;;11.93;;
78167;SDS011;67410;42.698;23.378;2023-02-11T17:12:18;20.83;;;10.02;;
78167;SDS011;67410;42.698;23.378;2023-02-11T17:14:45;9.10;;;6.28;;
78167;SDS011;67410;42.698;23.378;2023-02-11T17:17:12;24.38;;;11.88;;
78167;SDS011;67410;42.698;23.378;2023-02-11T17:19:39;23.90;;;10.73;;
78167;SDS011;67410;42.698;23.378;2023-02-11T17:22:05;23.38;;;12.30;;
78167;SDS011;67410;42.698;23.378;2023-02-11T17:24:32;35.75;;;15.93;;
78167;SDS011;67410;42.698;23.378;2023-02-11T17:26:58;31.35;;;14.70;;
78167;SDS011;67410;42.698;23.378;2023-02-11T17:29:24;30.15;;;13.93;;
78167;SDS011;67410;42.698;23.378;2023-02-11T17:31:51;34.88;;;15.20;;
78167;SDS011;67410;42.698;23.378;2023-02-11T17:34:18;40.85;;;18.50;;
78167;SDS011;67410;42.698;23.378;2023-02-11T17:36:46;22.40;;;12.07;;
78167;SDS011;67410;42.698;23.378;2023-02-11T17:39:13;24.92;;;11.63;;
78167;SDS011;67410;42.698;23.378;2023-02-11T17:41:39;16.15;;;10.60;;
78167;SDS011;67410;42.698;23.378;2023-02-11T17:44:06;13.90;;;7.18;;
78167;SDS011;67410;42.698;23.378;2023-02-11T17:46:33;20.17;;;10.10;;
78167;SDS011;67410;42.698;23.378;2023-02-11T17:49:00;23.35;;;11.75;;
78167;SDS011;67410;42.698;23.378;2023-02-11T17:51:33;23.30;;;11.40;;
78167;SDS011;67410;42.698;23.378;2023-02-11T17:54:02;28.33;;;13.02;;
78167;SDS011;67410;42.698;23.378;2023-02-11T17:56:33;28.15;;;12.57;;
78167;SDS011;67410;42.698;23.378;2023-02-11T17:59:01;39.28;;;15.40;;
78167;SDS011;67410;42.698;23.378;2023-02-11T18:01:29;26.63;;;12.35;;
78167;SDS011;67410;42.698;23.378;2023-02-11T18:03:57;22.27;;;12.13;;
78167;SDS011;67410;42.698;23.378;2023-02-11T18:06:23;10.10;;;5.85;;
78167;SDS011;67410;42.698;23.378;2023-02-11T18:08:49;25.65;;;12.45;;
78167;SDS011;67410;42.698;23.378;2023-02-11T18:11:17;30.95;;;12.90;;
78167;SDS011;67410;42.698;23.378;2023-02-11T18:13:43;24.23;;;12.38;;
78167;SDS011;67410;42.698;23.378;2023-02-11T18:16:10;35.00;;;12.15;;
78167;SDS011;67410;42.698;23.378;2023-02-11T18:18:43;25.75;;;11.02;;
78167;SDS011;67410;42.698;23.378;2023-02-11T18:21:14;27.55;;;10.25;;
78167;SDS011;67410;42.698;23.378;2023-02-11T18:23:41;22.42;;;11.60;;
78167;SDS011;67410;42.698;23.378;2023-02-11T18:26:08;31.92;;;11.93;;
78167;SDS011;67410;42.698;23.378;2023-02-11T18:28:36;20.38;;;8.55;;
78167;SDS011;67410;42.698;23.378;2023-02-11T18:31:02;22.27;;;10.35;;
78167;SDS011;67410;42.698;23.378;2023-02-11T18:33:29;17.63;;;8.30;;
78167;SDS011;67410;42.698;23.378;2023-02-11T18:35:55;28.65;;;12.75;;
78167;SDS011;67410;42.698;23.378;2023-02-11T18:38:21;30.38;;;13.13;;
78167;SDS011;67410;42.698;23.378;2023-02-11T18:40:49;29.23;;;12.45;;
78167;SDS011;67410;42.698;23.378;2023-02-11T18:43:17;29.45;;;12.80;;
78167;SDS011;67410;42.698;23.378;2023-02-11T18:45:45;24.33;;;11.23;;
78167;SDS011;67410;42.698;23.378;2023-02-11T18:48:12;20.25;;;8.25;;
78167;SDS011;67410;42.698;23.378;2023-02-11T18:50:39;18.60;;;8.10;;
78167;SDS011;67410;42.698;23.378;2023-02-11T18:53:07;23.67;;;10.20;;
78167;SDS011;67410;42.698;23.378;2023-02-11T18:55:34;24.02;;;10.50;;
78167;SDS011;67410;42.698;23.378;2023-02-11T18:58:02;19.77;;;9.45;;
78167;SDS011;67410;42.698;23.378;2023-02-11T19:00:28;19.80;;;9.57;;
78167;SDS011;67410;42.698;23.378;2023-02-11T19:02:56;26.05;;;11.80;;
78167;SDS011;67410;42.698;23.378;2023-02-11T19:05:22;22.05;;;10.93;;
78167;SDS011;67410;42.698;23.378;2023-02-11T19:07:55;25.40;;;10.15;;
78167;SDS011;67410;42.698;23.378;2023-02-11T19:10:22;17.88;;;9.93;;
78167;SDS011;67410;42.698;23.378;2023-02-11T19:12:49;37.97;;;15.50;;
78167;SDS011;67410;42.698;23.378;2023-02-11T19:15:19;17.98;;;10.20;;
78167;SDS011;67410;42.698;23.378;2023-02-11T19:17:45;23.85;;;10.30;;
78167;SDS011;67410;42.698;23.378;2023-02-11T19:20:11;22.65;;;9.70;;
78167;SDS011;67410;42.698;23.378;2023-02-11T19:22:37;22.40;;;10.48;;
78167;SDS011;67410;42.698;23.378;2023-02-11T19:25:03;23.55;;;12.65;;
78167;SDS011;67410;42.698;23.378;2023-02-11T19:27:30;32.30;;;14.52;;
78167;SDS011;67410;42.698;23.378;2023-02-11T19:29:56;29.58;;;12.25;;
78167;SDS011;67410;42.698;23.378;2023-02-11T19:32:22;34.20;;;13.63;;
78167;SDS011;67410;42.698;23.378;2023-02-11T19:34:48;42.30;;;16.48;;
78167;SDS011;67410;42.698;23.378;2023-02-11T19:37:14;50.75;;;19.45;;
78167;SDS011;67410;42.698;23.378;2023-02-11T19:39:41;65.05;;;24.40;;
78167;SDS011;67410;42.698;23.378;2023-02-11T19:42:07;72.85;;;26.23;;
78167;SDS011;67410;42.698;23.378;2023-02-11T19:44:34;79.28;;;28.08;;
78167;SDS011;67410;42.698;23.378;2023-02-11T19:47:00;106.28;;;35.25;;
78167;SDS011;67410;42.698;23.378;2023-02-11T19:49:27;107.68;;;37.75;;
78167;SDS011;67410;42.698;23.378;2023-02-11T19:51:54;95.18;;;32.30;;
78167;SDS011;67410;42.698;23.378;2023-02-11T19:54:23;45.95;;;17.80;;
78167;SDS011;67410;42.698;23.378;2023-02-11T19:56:56;37.35;;;15.38;;
78167;SDS011;67410;42.698;23.378;2023-02-11T19:59:23;34.88;;;13.70;;
78167;SDS011;67410;42.698;23.378;2023-02-11T20:01:49;23.05;;;10.68;;
78167;SDS011;67410;42.698;23.378;2023-02-11T20:04:17;18.25;;;8.35;;
78167;SDS011;67410;42.698;23.378;2023-02-11T20:06:44;32.83;;;12.65;;
78167;SDS011;67410;42.698;23.378;2023-02-11T20:09:13;22.45;;;9.57;;
78167;SDS011;67410;42.698;23.378;2023-02-11T20:11:40;27.15;;;13.85;;
78167;SDS011;67410;42.698;23.378;2023-02-11T20:14:09;27.05;;;13.32;;
78167;SDS011;67410;42.698;23.378;2023-02-11T20:16:37;25.63;;;10.75;;
78167;SDS011;67410;42.698;23.378;2023-02-11T20:19:04;14.32;;;8.13;;
78167;SDS011;67410;42.698;23.378;2023-02-11T20:21:30;16.60;;;8.80;;
78167;SDS011;67410;42.698;23.378;2023-02-11T20:23:58;20.20;;;10.20;;
78167;SDS011;67410;42.698;23.378;2023-02-11T20:26:29;25.98;;;11.88;;
78167;SDS011;67410;42.698;23.378;2023-02-11T20:28:58;27.58;;;11.30;;
78167;SDS011;67410;42.698;23.378;2023-02-11T20:31:28;18.95;;;8.60;;
78167;SDS011;67410;42.698;23.378;2023-02-11T20:33:58;23.25;;;10.85;;
78167;SDS011;67410;42.698;23.378;2023-02-11T20:36:26;28.10;;;14.68;;
78167;SDS011;67410;42.698;23.378;2023-02-11T20:38:57;22.52;;;10.93;;
78167;SDS011;67410;42.698;23.378;2023-02-11T20:41:36;17.23;;;9.02;;
78167;SDS011;67410;42.698;23.378;2023-02-11T20:44:06;41.20;;;16.67;;
78167;SDS011;67410;42.698;23.378;2023-02-11T20:46:35;28.15;;;15.93;;
78167;SDS011;67410;42.698;23.378;2023-02-11T20:49:04;39.70;;;16.52;;
78167;SDS011;67410;42.698;23.378;2023-02-11T20:51:31;52.53;;;21.65;;
78167;SDS011;67410;42.698;23.378;2023-02-11T20:53:59;94.82;;;36.28;;
78167;SDS011;67410;42.698;23.378;2023-02-11T20:56:27;77.55;;;30.08;;
78167;SDS011;67410;42.698;23.378;2023-02-11T20:58:56;79.45;;;31.08;;
78167;SDS011;67410;42.698;23.378;2023-02-11T21:01:25;55.03;;;25.00;;
78167;SDS011;67410;42.698;23.378;2023-02-11T21:04:01;59.75;;;26.45;;
78167;SDS011;67410;42.698;23.378;2023-02-11T21:06:37;73.28;;;30.15;;
78167;SDS011;67410;42.698;23.378;2023-02-11T21:09:07;74.38;;;28.17;;
78167;SDS011;67410;42.698;23.378;2023-02-11T21:11:37;63.67;;;26.85;;
78167;SDS011;67410;42.698;23.378;2023-02-11T21:14:03;67.20;;;29.20;;
78167;SDS011;67410;42.698;23.378;2023-02-11T21:16:31;58.03;;;23.05;;
78167;SDS011;67410;42.698;23.378;2023-02-11T21:18:57;53.92;;;23.85;;
78167;SDS011;67410;42.698;23.378;2023-02-11T21:21:25;50.13;;;23.27;;
78167;SDS011;67410;42.698;23.378;2023-02-11T21:23:53;67.93;;;27.05;;
78167;SDS011;67410;42.698;23.378;2023-02-11T21:26:21;69.20;;;29.60;;
78167;SDS011;67410;42.698;23.378;2023-02-11T21:28:48;85.82;;;30.08;;
78167;SDS011;67410;42.698;23.378;2023-02-11T21:31:19;80.32;;;30.65;;
78167;SDS011;67410;42.698;23.378;2023-02-11T21:33:48;86.22;;;29.63;;
78167;SDS011;67410;42.698;23.378;2023-02-11T21:36:17;75.28;;;30.83;;
78167;SDS011;67410;42.698;23.378;2023-02-11T21:38:43;89.50;;;32.20;;
78167;SDS011;67410;42.698;23.378;2023-02-11T21:41:09;88.30;;;27.73;;
78167;SDS011;67410;42.698;23.378;2023-02-11T21:43:36;107.35;;;37.80;;
78167;SDS011;67410;42.698;23.378;2023-02-11T21:46:10;76.68;;;28.70;;
78167;SDS011;67410;42.698;23.378;2023-02-11T21:48:38;83.28;;;28.48;;
78167;SDS011;67410;42.698;23.378;2023-02-11T21:51:07;93.78;;;28.23;;
78167;SDS011;67410;42.698;23.378;2023-02-11T21:53:36;67.00;;;25.33;;
78167;SDS011;67410;42.698;23.378;2023-02-11T21:56:04;61.80;;;23.48;;
78167;SDS011;67410;42.698;23.378;2023-02-11T21:58:32;42.92;;;18.17;;
78167;SDS011;67410;42.698;23.378;2023-02-11T22:00:59;45.65;;;17.85;;
78167;SDS011;67410;42.698;23.378;2023-02-11T22:03:25;55.90;;;22.52;;
78167;SDS011;67410;42.698;23.378;2023-02-11T22:05:52;67.47;;;30.10;;